createdAt,value
2022-08-07T00:00:49.888Z,12.60
2022-08-07T00:03:37.179Z,12.52
2022-08-07T00:06:33.281Z,12.51
2022-08-07T00:09:22.715Z,12.48
2022-08-07T00:12:10.723Z,12.46
2022-08-07T00:14:57.744Z,12.42
2022-08-07T00:17:44.524Z,12.38
2022-08-07T00:20:34.302Z,12.37
2022-08-07T00:23:21.135Z,12.33
2022-08-07T00:26:18.853Z,12.30
2022-08-07T00:29:15.443Z,12.25
2022-08-07T00:32:01.908Z,12.17
2022-08-07T00:34:49.362Z,12.13
2022-08-07T00:37:47.710Z,12.09
2022-08-07T00:40:39.150Z,12.04
2022-08-07T00:44:01.274Z,11.98
2022-08-07T00:46:32.969Z,11.91
2022-08-07T00:50:16.774Z,11.85
2022-08-07T00:52:24.920Z,11.80
2022-08-07T00:55:10.848Z,11.76
2022-08-07T00:57:56.761Z,11.73
2022-08-07T01:00:53.757Z,11.68
2022-08-07T01:03:56.981Z,11.65
2022-08-07T01:06:46.122Z,11.60
2022-08-07T01:10:04.538Z,11.56
2022-08-07T01:12:53.074Z,11.55
2022-08-07T01:16:03.136Z,11.50
2022-08-07T01:18:46.351Z,11.44
2022-08-07T01:21:33.066Z,11.37
2022-08-07T01:24:23.659Z,11.24
2022-08-07T01:27:19.697Z,11.12
2022-08-07T01:30:07.233Z,11.09
2022-08-07T01:32:56.695Z,11.08
2022-08-07T01:35:53.409Z,11.06
2022-08-07T01:38:40.504Z,11.00
2022-08-07T01:41:38.435Z,10.96
2022-08-07T01:44:24.507Z,10.94
2022-08-07T01:47:14.404Z,10.93
2022-08-07T01:50:17.094Z,10.91
2022-08-07T01:53:21.942Z,10.87
2022-08-07T01:56:34.335Z,10.83
2022-08-07T01:59:33.936Z,10.80
2022-08-07T02:03:12.462Z,10.76
2022-08-07T02:06:08.983Z,10.70
2022-08-07T02:09:12.104Z,10.62
2022-08-07T02:12:29.182Z,10.59
2022-08-07T02:15:22.894Z,10.58
2022-08-07T02:18:14.095Z,10.56
2022-08-07T02:21:06.203Z,10.52
2022-08-07T02:23:53.335Z,10.47
2022-08-07T02:26:40.465Z,10.46
2022-08-07T02:29:27.646Z,10.42
2022-08-07T02:32:18.868Z,10.41
2022-08-07T02:35:10.871Z,10.36
2022-08-07T02:38:00.348Z,10.35
2022-08-07T02:40:50.449Z,10.31
2022-08-07T02:43:43.318Z,10.29
2022-08-07T02:46:38.070Z,10.25
2022-08-07T02:49:59.006Z,10.22
2022-08-07T02:53:03.460Z,10.18
2022-08-07T02:56:04.025Z,10.13
2022-08-07T02:58:55.396Z,10.08
2022-08-07T03:01:47.313Z,10.05
2022-08-07T03:04:41.026Z,10.03
2022-08-07T03:07:43.102Z,10.00
2022-08-07T03:10:35.990Z,9.98
2022-08-07T03:13:27.349Z,9.96
2022-08-07T03:16:14.571Z,9.93
2022-08-07T03:19:01.736Z,9.87
2022-08-07T03:21:50.880Z,9.84
2022-08-07T03:24:37.742Z,9.81
2022-08-07T03:27:30.849Z,9.80
2022-08-07T03:30:33.861Z,9.77
2022-08-07T03:33:20.717Z,9.73
2022-08-07T03:36:08.501Z,9.70
2022-08-07T03:38:57.848Z,9.67
2022-08-07T03:41:53.309Z,9.60
2022-08-07T03:44:40.044Z,9.57
2022-08-07T03:47:29.654Z,9.55
2022-08-07T03:50:35.054Z,9.52
2022-08-07T03:54:00.564Z,9.48
2022-08-07T03:56:33.472Z,9.46
2022-08-07T03:59:22.511Z,9.46
2022-08-07T04:02:09.968Z,9.46
2022-08-07T04:04:55.431Z,9.44
2022-08-07T04:07:46.844Z,9.43
2022-08-07T04:10:38.727Z,9.43
2022-08-07T04:13:27.701Z,9.45
2022-08-07T04:16:14.344Z,9.50
2022-08-07T04:19:16.434Z,9.80
2022-08-07T04:22:13.340Z,10.36
2022-08-07T04:25:03.052Z,11.01
2022-08-07T04:27:59.464Z,11.62
2022-08-07T04:30:55.526Z,12.25
2022-08-07T04:33:55.075Z,12.93
2022-08-07T04:36:43.508Z,13.55
2022-08-07T04:39:36.033Z,14.08
2022-08-07T04:42:28.728Z,14.59
2022-08-07T04:45:15.051Z,15.13
2022-08-07T04:48:10.219Z,15.53
2022-08-07T04:51:05.882Z,15.85
2022-08-07T04:54:29.876Z,16.17
2022-08-07T04:58:11.835Z,16.44
2022-08-07T05:00:40.930Z,16.95
2022-08-07T05:04:06.785Z,17.40
2022-08-07T05:07:09.704Z,17.93
2022-08-07T05:10:25.004Z,18.59
2022-08-07T05:14:53.043Z,19.09
2022-08-07T05:16:30.403Z,19.53
2022-08-07T05:19:32.561Z,19.67
2022-08-07T05:22:26.593Z,19.68
2022-08-07T05:25:25.834Z,19.44
2022-08-07T05:28:26.774Z,19.57
2022-08-07T05:31:16.838Z,19.68
2022-08-07T05:34:11.122Z,20.10
2022-08-07T05:36:58.681Z,20.60
2022-08-07T05:40:05.547Z,20.99
2022-08-07T05:42:56.610Z,21.22
2022-08-07T05:45:47.354Z,21.31
2022-08-07T05:48:58.032Z,21.55
2022-08-07T05:51:47.082Z,21.80
2022-08-07T05:54:44.107Z,22.00
2022-08-07T05:57:42.268Z,22.33
2022-08-07T06:00:32.126Z,22.52
2022-08-07T06:03:23.749Z,22.70
2022-08-07T06:06:12.322Z,22.76
2022-08-07T06:09:06.891Z,22.79
2022-08-07T06:11:57.863Z,22.82
2022-08-07T06:14:49.410Z,22.89
2022-08-07T06:17:38.509Z,22.97
2022-08-07T06:20:49.873Z,22.88
2022-08-07T06:24:36.992Z,22.81
2022-08-07T06:26:41.828Z,22.83
2022-08-07T06:29:29.952Z,23.00
2022-08-07T06:32:16.133Z,23.04
2022-08-07T06:35:02.936Z,22.85
2022-08-07T06:38:05.162Z,22.26
2022-08-07T06:40:56.406Z,22.15
2022-08-07T06:43:59.197Z,22.29
2022-08-07T06:46:53.528Z,22.49
2022-08-07T06:49:58.439Z,22.82
2022-08-07T06:52:55.952Z,22.66
2022-08-07T06:55:53.877Z,22.02
2022-08-07T07:00:12.200Z,21.27
2022-08-07T07:02:03.346Z,20.77
2022-08-07T07:04:54.935Z,20.42
2022-08-07T07:07:59.427Z,20.12
2022-08-07T07:10:56.576Z,19.85
2022-08-07T07:13:58.424Z,19.57
2022-08-07T07:16:53.507Z,19.32
2022-08-07T07:19:57.605Z,19.04
2022-08-07T07:24:06.298Z,18.87
2022-08-07T07:26:35.369Z,18.52
2022-08-07T07:29:56.280Z,18.33
2022-08-07T07:32:14.032Z,18.26
2022-08-07T07:35:03.920Z,18.19
2022-08-07T07:37:59.390Z,18.17
2022-08-07T07:40:51.143Z,18.16
2022-08-07T07:44:14.568Z,18.22
2022-08-07T07:46:57.217Z,18.26
2022-08-07T07:50:35.274Z,18.27
2022-08-07T07:53:00.807Z,18.34
2022-08-07T07:55:57.797Z,18.37
2022-08-07T07:58:47.428Z,18.40
2022-08-07T08:02:03.513Z,18.46
2022-08-07T08:04:50.450Z,18.56
2022-08-07T08:07:42.473Z,18.57
2022-08-07T08:10:45.341Z,18.63
2022-08-07T08:13:54.458Z,18.70
2022-08-07T08:29:08.258Z,18.73
2022-08-07T08:32:17.200Z,18.80
2022-08-07T08:35:28.505Z,18.90
2022-08-07T08:38:17.229Z,19.00
2022-08-07T08:41:13.316Z,19.02
2022-08-07T08:45:13.882Z,19.04
2022-08-07T08:52:30.473Z,19.11
2022-08-07T08:55:55.310Z,19.17
2022-08-07T08:59:48.247Z,19.25
2022-08-07T09:02:55.313Z,19.35
2022-08-07T09:06:21.295Z,19.46
2022-08-07T09:09:43.275Z,19.54
2022-08-07T09:17:59.386Z,19.62
2022-08-07T09:25:43.141Z,19.67
2022-08-07T09:30:05.705Z,19.79
2022-08-07T09:33:05.375Z,19.94
2022-08-07T09:36:04.083Z,20.04
2022-08-07T09:42:56.771Z,20.10
2022-08-07T09:47:25.742Z,20.19
2022-08-07T09:50:18.949Z,20.33
2022-08-07T09:53:07.519Z,20.38
2022-08-07T09:56:37.697Z,20.32
2022-08-07T09:59:46.145Z,20.35
2022-08-07T10:03:08.477Z,20.47
2022-08-07T10:06:42.575Z,20.55
2022-08-07T10:10:21.429Z,20.66
2022-08-07T10:14:01.555Z,20.67
2022-08-07T10:16:47.720Z,20.83
2022-08-07T10:19:39.426Z,20.88
2022-08-07T10:24:06.263Z,20.89
2022-08-07T10:27:47.526Z,20.88
2022-08-07T10:31:11.319Z,21.04
2022-08-07T10:34:15.365Z,21.10
2022-08-07T10:38:00.009Z,21.17
2022-08-07T10:40:42.022Z,21.15
2022-08-07T10:43:34.372Z,21.15
2022-08-07T10:51:57.796Z,21.16
2022-08-07T10:54:53.245Z,21.21
2022-08-07T10:58:17.761Z,21.36
2022-08-07T11:01:51.617Z,21.36
2022-08-07T11:05:10.738Z,21.43
2022-08-07T11:08:33.741Z,21.46
2022-08-07T11:12:14.480Z,21.44
2022-08-07T11:15:20.331Z,21.36
2022-08-07T11:18:42.543Z,21.33
2022-08-07T11:26:06.381Z,21.51
2022-08-07T11:29:05.622Z,21.57
2022-08-07T11:32:10.678Z,21.65
2022-08-07T11:35:00.047Z,21.68
2022-08-07T11:38:12.458Z,21.91
2022-08-07T11:41:03.280Z,21.88
2022-08-07T11:44:11.932Z,21.82
2022-08-07T11:47:39.163Z,21.76
2022-08-07T11:50:57.821Z,21.87
2022-08-07T11:54:01.655Z,21.97
2022-08-07T11:57:57.722Z,22.10
2022-08-07T12:00:39.625Z,22.25
2022-08-07T12:03:45.341Z,22.32
2022-08-07T12:07:00.694Z,22.47
2022-08-07T12:10:02.201Z,22.67
2022-08-07T12:13:02.251Z,22.82
2022-08-07T12:16:48.972Z,22.95
2022-08-07T12:20:04.727Z,22.84
2022-08-07T12:24:07.202Z,22.71
2022-08-07T12:27:18.504Z,22.63
2022-08-07T12:30:13.968Z,22.64
2022-08-07T12:38:09.279Z,22.47
2022-08-07T12:40:47.581Z,22.57
2022-08-07T12:44:02.676Z,22.84
2022-08-07T12:47:00.516Z,23.27
2022-08-07T12:50:04.477Z,23.62
2022-08-07T12:52:59.800Z,23.91
2022-08-07T12:56:29.330Z,23.94
2022-08-07T13:03:08.261Z,23.49
2022-08-07T13:06:21.546Z,23.50
2022-08-07T13:10:19.678Z,23.69
2022-08-07T13:12:53.943Z,23.64
2022-08-07T13:16:10.755Z,23.40
2022-08-07T13:19:46.131Z,23.56
2022-08-07T13:22:52.493Z,23.72
2022-08-07T13:25:50.829Z,23.61
2022-08-07T13:28:58.177Z,23.55
2022-08-07T13:31:57.905Z,23.62
2022-08-07T13:35:00.593Z,23.94
2022-08-07T13:38:18.784Z,24.06
2022-08-07T13:41:42.372Z,23.79
2022-08-07T13:44:37.320Z,23.70
2022-08-07T13:47:28.020Z,23.68
2022-08-07T13:50:44.446Z,23.58
2022-08-07T13:54:00.698Z,23.52
2022-08-07T13:56:55.801Z,23.63
2022-08-07T13:59:57.620Z,23.62
2022-08-07T14:02:51.056Z,23.53
2022-08-07T14:05:40.317Z,23.52
2022-08-07T14:08:27.904Z,23.50
2022-08-07T14:11:17.516Z,23.49
2022-08-07T14:14:11.563Z,23.60
2022-08-07T14:22:03.294Z,23.57
2022-08-07T14:25:01.981Z,23.68
2022-08-07T14:28:32.030Z,23.80
2022-08-07T14:31:06.877Z,23.84
2022-08-07T14:33:55.389Z,24.04
2022-08-07T14:36:44.473Z,24.02
2022-08-07T14:40:26.737Z,23.95
2022-08-07T14:43:55.128Z,23.92
2022-08-07T14:47:36.945Z,23.97
2022-08-07T14:50:24.543Z,23.95
2022-08-07T14:53:11.165Z,23.92
2022-08-07T14:56:04.759Z,23.99
2022-08-07T15:00:05.353Z,23.93
2022-08-07T15:04:10.515Z,23.85
2022-08-07T15:07:47.696Z,23.86
2022-08-07T15:10:58.848Z,23.75
2022-08-07T15:14:22.411Z,23.70
2022-08-07T15:17:20.565Z,23.71
2022-08-07T15:20:55.291Z,23.71
2022-08-07T15:25:14.899Z,23.66
2022-08-07T15:28:31.011Z,23.70
2022-08-07T15:32:01.904Z,23.85
2022-08-07T15:34:55.442Z,24.30
2022-08-07T15:38:04.504Z,24.47
2022-08-07T15:41:00.258Z,24.36
2022-08-07T15:43:59.791Z,24.28
2022-08-07T15:46:52.639Z,24.28
2022-08-07T15:50:04.930Z,24.42
2022-08-07T15:53:51.877Z,24.38
2022-08-07T16:06:35.333Z,24.37
2022-08-07T16:09:42.100Z,24.19
2022-08-07T16:13:17.659Z,24.13
2022-08-07T16:21:57.057Z,24.23
2022-08-07T16:24:59.556Z,24.07
2022-08-07T16:32:46.578Z,24.01
2022-08-07T16:35:52.086Z,23.98
2022-08-07T16:44:06.280Z,23.95
2022-08-07T16:52:01.596Z,23.64
2022-08-07T16:59:17.435Z,23.46
2022-08-07T17:09:13.904Z,23.40
2022-08-07T17:12:35.899Z,23.34
2022-08-07T17:15:55.809Z,23.29
2022-08-07T17:18:57.172Z,23.24
2022-08-07T17:21:51.711Z,23.18
2022-08-07T17:24:47.072Z,23.13
2022-08-07T17:28:00.539Z,23.02
2022-08-07T17:31:15.655Z,22.89
2022-08-07T17:35:33.093Z,22.81
2022-08-07T17:38:33.349Z,22.71
2022-08-07T17:42:04.914Z,22.63
2022-08-07T17:44:56.909Z,22.53
2022-08-07T17:47:54.308Z,22.46
2022-08-07T17:51:49.250Z,22.35
2022-08-07T17:54:53.885Z,22.27
2022-08-07T17:57:59.083Z,22.11
2022-08-07T18:00:52.860Z,21.99
2022-08-07T18:04:08.083Z,21.91
2022-08-07T18:07:22.903Z,21.84
2022-08-07T18:10:32.873Z,21.76
2022-08-07T18:13:41.535Z,21.71
2022-08-07T18:16:57.387Z,21.67
2022-08-07T18:21:07.142Z,21.61
2022-08-07T18:23:06.100Z,21.48
2022-08-07T18:26:15.104Z,21.41
2022-08-07T18:29:05.877Z,21.35
2022-08-07T18:32:23.159Z,21.26
2022-08-07T18:35:26.429Z,21.19
2022-08-07T18:38:55.408Z,21.10
2022-08-07T18:42:04.198Z,20.99
2022-08-07T18:45:43.995Z,20.89
2022-08-07T18:50:04.765Z,20.78
2022-08-07T18:52:33.666Z,20.68
2022-08-07T18:55:43.328Z,20.58
2022-08-07T18:59:47.521Z,20.41
2022-08-07T19:02:36.849Z,20.29
2022-08-07T19:06:02.167Z,20.16
2022-08-07T19:09:00.246Z,20.02
2022-08-07T19:12:05.125Z,19.87
2022-08-07T19:16:02.612Z,19.75
2022-08-07T19:18:46.620Z,19.60
2022-08-07T19:22:15.029Z,19.43
2022-08-07T19:25:06.376Z,19.30
2022-08-07T19:29:03.358Z,19.14
2022-08-07T19:31:43.626Z,18.95
2022-08-07T19:34:32.724Z,18.80
2022-08-07T19:37:24.005Z,18.71
2022-08-07T19:40:38.183Z,18.62
2022-08-07T19:43:51.965Z,18.50
2022-08-07T19:46:55.880Z,18.38
2022-08-07T19:49:57.990Z,18.28
2022-08-07T19:52:58.604Z,18.19
2022-08-07T19:55:57.563Z,18.08
2022-08-07T19:58:54.279Z,18.00
2022-08-07T20:01:56.219Z,17.90
2022-08-07T20:04:49.427Z,17.77
2022-08-07T20:07:48.173Z,17.71
2022-08-07T20:10:54.558Z,17.61
2022-08-07T20:14:03.274Z,17.44
2022-08-07T20:16:56.717Z,17.33
2022-08-07T20:19:49.425Z,17.21
2022-08-07T20:22:45.721Z,17.08
2022-08-07T20:25:33.456Z,17.02
2022-08-07T20:28:30.894Z,16.92
2022-08-07T20:31:21.120Z,16.89
2022-08-07T20:34:10.325Z,16.80
2022-08-07T20:37:01.167Z,16.75
2022-08-07T20:40:02.677Z,16.77
2022-08-07T20:42:57.978Z,16.68
2022-08-07T20:46:26.208Z,16.63
2022-08-07T20:49:54.353Z,16.56
2022-08-07T20:52:13.851Z,16.47
2022-08-07T20:55:05.719Z,16.34
2022-08-07T20:58:04.164Z,16.26
2022-08-07T21:01:19.809Z,16.15
2022-08-07T21:04:22.234Z,16.07
2022-08-07T21:07:14.382Z,16.07
2022-08-07T21:10:14.261Z,16.02
2022-08-07T21:13:14.803Z,15.97
2022-08-07T21:16:05.332Z,15.91
2022-08-07T21:18:54.982Z,15.86
2022-08-07T21:21:49.162Z,15.80
2022-08-07T21:24:58.490Z,15.70
2022-08-07T21:28:02.539Z,15.64
2022-08-07T21:31:00.548Z,15.56
2022-08-07T21:34:10.331Z,15.46
2022-08-07T21:37:58.635Z,15.39
2022-08-07T21:40:48.269Z,15.32
2022-08-07T21:43:55.642Z,15.27
2022-08-07T21:47:07.530Z,15.18
2022-08-07T21:50:05.279Z,15.10
2022-08-07T21:53:13.181Z,15.04
2022-08-07T21:56:37.845Z,14.99
2022-08-07T22:03:05.569Z,14.86
2022-08-07T22:06:07.945Z,14.81
2022-08-07T22:09:25.476Z,14.79
2022-08-07T22:12:19.915Z,14.75
2022-08-07T22:16:41.891Z,14.69
2022-08-07T22:18:59.828Z,14.62
2022-08-07T22:22:10.979Z,14.58
2022-08-07T22:25:13.049Z,14.52
2022-08-07T22:28:31.217Z,14.47
2022-08-07T22:31:58.927Z,14.39
2022-08-07T22:34:56.740Z,14.36
2022-08-07T22:38:05.420Z,14.29
2022-08-07T22:41:29.125Z,14.24
2022-08-07T22:44:38.503Z,14.16
2022-08-07T22:47:57.065Z,14.08
2022-08-07T22:51:36.804Z,13.99
2022-08-07T22:54:48.937Z,13.92
2022-08-07T22:58:12.912Z,13.88
2022-08-07T23:01:15.391Z,13.84
2022-08-07T23:04:57.873Z,13.82
2022-08-07T23:08:23.827Z,13.78
2022-08-07T23:11:48.353Z,13.66
2022-08-07T23:14:56.721Z,13.58
2022-08-07T23:18:12.934Z,13.53
2022-08-07T23:21:21.980Z,13.41
2022-08-07T23:24:27.804Z,13.35
2022-08-07T23:27:33.618Z,13.31
2022-08-07T23:30:37.428Z,13.28
2022-08-07T23:34:24.225Z,13.23
2022-08-07T23:38:01.320Z,13.21
2022-08-07T23:40:57.121Z,13.14
2022-08-07T23:44:00.460Z,13.06
2022-08-07T23:47:12.466Z,12.96
2022-08-07T23:50:16.996Z,12.83
2022-08-07T23:53:08.716Z,12.80
2022-08-07T23:56:14.851Z,12.78
